createdAt,value
2017-05-03T00:00:28.827Z,0
2017-05-03T00:02:52.470Z,0
2017-05-03T00:05:16.038Z,0
2017-05-03T00:07:39.614Z,0
2017-05-03T00:10:03.157Z,0
2017-05-03T00:12:26.742Z,0
2017-05-03T00:14:50.307Z,0
2017-05-03T00:17:13.882Z,0
2017-05-03T00:19:37.443Z,0
2017-05-03T00:21:52.513Z,0
2017-05-03T00:26:09.378Z,0
2017-05-03T00:28:32.925Z,0
2017-05-03T00:30:48.086Z,0
2017-05-03T00:33:11.658Z,0
2017-05-03T00:35:35.237Z,0
2017-05-03T00:37:50.400Z,0
2017-05-03T00:40:13.879Z,0
2017-05-03T00:42:37.457Z,0
2017-05-03T00:46:37.294Z,0
2017-05-03T00:49:00.840Z,0
2017-05-03T00:51:24.298Z,0
2017-05-03T00:53:47.871Z,0
2017-05-03T00:56:03.030Z,0
2017-05-03T00:58:26.609Z,0
2017-05-03T01:00:50.184Z,0
2017-05-03T01:05:23.928Z,0
2017-05-03T01:07:47.491Z,0
2017-05-03T01:10:11.044Z,0
2017-05-03T01:12:34.621Z,0
2017-05-03T01:14:58.189Z,0
2017-05-03T01:17:21.760Z,0
2017-05-03T01:19:45.347Z,0
2017-05-03T01:22:08.911Z,0
2017-05-03T01:26:25.752Z,0
2017-05-03T01:28:49.297Z,0
2017-05-03T01:31:12.867Z,0
2017-05-03T01:33:43.187Z,0
2017-05-03T01:36:06.773Z,0
2017-05-03T01:38:30.332Z,0
2017-05-03T01:40:53.889Z,0
2017-05-03T01:43:17.370Z,0
2017-05-03T01:45:40.947Z,0
2017-05-03T01:48:04.501Z,0
2017-05-03T01:50:27.972Z,0
2017-05-03T01:52:51.447Z,0
2017-05-03T01:55:14.903Z,0
2017-05-03T01:57:29.962Z,0
2017-05-03T01:59:45.041Z,0
2017-05-03T02:02:08.541Z,0
2017-05-03T02:04:32.090Z,0
2017-05-03T02:06:55.568Z,0
2017-05-03T02:09:19.135Z,0
2017-05-03T02:11:34.308Z,0
2017-05-03T02:13:57.877Z,0
2017-05-03T02:16:21.433Z,0
2017-05-03T02:20:46.692Z,0
2017-05-03T02:23:10.223Z,0
2017-05-03T02:25:33.695Z,0
2017-05-03T02:29:50.423Z,0
2017-05-03T02:32:13.888Z,0
2017-05-03T02:36:22.217Z,0
2017-05-03T02:40:55.825Z,0
2017-05-03T02:43:19.306Z,0
2017-05-03T02:47:18.980Z,0
2017-05-03T02:49:42.499Z,0
2017-05-03T02:52:05.959Z,0
2017-05-03T02:54:29.430Z,0
2017-05-03T02:56:52.898Z,0
2017-05-03T02:59:16.370Z,0
2017-05-03T03:01:39.845Z,0
2017-05-03T03:04:03.282Z,0
2017-05-03T03:06:18.373Z,0
2017-05-03T03:10:52.027Z,0
2017-05-03T03:13:15.590Z,0
2017-05-03T03:17:40.939Z,0
2017-05-03T03:20:04.463Z,0
2017-05-03T03:22:27.929Z,0
2017-05-03T03:24:42.999Z,0
2017-05-03T03:27:06.466Z,0
2017-05-03T03:33:41.978Z,0
2017-05-03T03:36:05.526Z,0
2017-05-03T03:38:28.991Z,0
2017-05-03T03:40:52.457Z,0
2017-05-03T03:43:15.924Z,0
2017-05-03T03:47:32.782Z,0
2017-05-03T03:49:56.331Z,0
2017-05-03T03:52:19.797Z,0
2017-05-03T03:54:43.269Z,0
2017-05-03T03:57:06.718Z,0
2017-05-03T04:01:40.369Z,0
2017-05-03T04:03:55.418Z,0
2017-05-03T04:06:18.896Z,0
2017-05-03T04:08:33.949Z,0
2017-05-03T04:10:57.416Z,0
2017-05-03T04:15:14.162Z,0
2017-05-03T04:17:37.612Z,0
2017-05-03T04:22:11.281Z,0
2017-05-03T04:24:26.294Z,0
2017-05-03T04:28:59.957Z,0
2017-05-03T04:31:23.496Z,5
2017-05-03T04:33:46.962Z,5
2017-05-03T04:36:10.424Z,5
2017-05-03T04:38:33.903Z,5
2017-05-03T04:40:57.417Z,10
2017-05-03T04:43:20.939Z,10
2017-05-03T04:45:44.408Z,15
2017-05-03T04:48:07.881Z,15
2017-05-03T04:50:22.937Z,20
2017-05-03T04:52:46.422Z,25
2017-05-03T04:55:01.579Z,30
2017-05-03T04:57:25.047Z,40
2017-05-03T04:59:48.542Z,65
2017-05-03T05:02:12.138Z,85
2017-05-03T05:04:35.817Z,90
2017-05-03T05:09:01.318Z,110
2017-05-03T05:11:26.351Z,115
2017-05-03T05:13:50.502Z,80
2017-05-03T05:16:14.795Z,65
2017-05-03T05:20:40.966Z,80
2017-05-03T05:23:05.333Z,70
2017-05-03T05:25:21.176Z,110
2017-05-03T05:27:45.409Z,130
2017-05-03T05:30:09.722Z,60
2017-05-03T05:34:45.693Z,45
2017-05-03T05:38:51.370Z,45
2017-05-03T05:41:08.132Z,40
2017-05-03T05:43:33.203Z,40
2017-05-03T05:46:11.811Z,40
2017-05-03T05:48:50.834Z,50
2017-05-03T05:52:57.073Z,60
2017-05-03T05:56:56.633Z,65
2017-05-03T05:59:20.455Z,80
2017-05-03T06:03:54.103Z,120
2017-05-03T06:06:09.566Z,145
2017-05-03T06:08:33.436Z,255
2017-05-03T06:10:48.946Z,1445
2017-05-03T06:13:13.002Z,1225
2017-05-03T06:15:28.839Z,935
2017-05-03T06:17:36.462Z,1415
2017-05-03T06:20:01.207Z,1565
2017-05-03T06:24:36.980Z,245
2017-05-03T06:27:02.336Z,225
2017-05-03T06:29:10.618Z,240
2017-05-03T06:31:35.808Z,400
2017-05-03T06:34:01.021Z,325
2017-05-03T06:36:17.609Z,185
2017-05-03T06:38:34.310Z,145
2017-05-03T06:40:59.446Z,170
2017-05-03T06:43:24.363Z,185
2017-05-03T06:45:49.243Z,175
2017-05-03T06:49:50.369Z,125
2017-05-03T06:52:16.076Z,135
2017-05-03T06:54:40.631Z,190
2017-05-03T06:57:05.228Z,225
2017-05-03T06:59:21.327Z,245
2017-05-03T07:01:45.785Z,380
2017-05-03T07:04:10.260Z,750
2017-05-03T07:06:34.920Z,945
2017-05-03T07:08:59.516Z,685
2017-05-03T07:11:24.263Z,205
2017-05-03T07:13:48.935Z,195
2017-05-03T07:16:13.608Z,225
2017-05-03T07:18:38.189Z,180
2017-05-03T07:21:02.761Z,125
2017-05-03T07:23:27.355Z,130
2017-05-03T07:25:43.324Z,75
2017-05-03T07:28:07.682Z,55
2017-05-03T07:34:44.433Z,60
2017-05-03T07:37:08.654Z,70
2017-05-03T07:39:32.796Z,65
2017-05-03T07:41:56.998Z,55
2017-05-03T07:44:21.161Z,55
2017-05-03T07:46:45.239Z,55
2017-05-03T07:49:09.466Z,60
2017-05-03T07:51:33.499Z,60
2017-05-03T07:53:57.575Z,55
2017-05-03T07:56:21.671Z,55
2017-05-03T07:58:45.734Z,55
2017-05-03T08:01:01.315Z,55
2017-05-03T08:03:25.402Z,50
2017-05-03T08:05:49.389Z,45
2017-05-03T08:08:13.463Z,40
2017-05-03T08:10:37.425Z,35
2017-05-03T08:13:01.399Z,30
2017-05-03T08:15:25.368Z,30
2017-05-03T08:17:49.351Z,30
2017-05-03T08:22:14.591Z,30
2017-05-03T08:24:38.491Z,25
2017-05-03T08:27:02.392Z,25
2017-05-03T08:29:26.248Z,30
2017-05-03T08:31:50.107Z,35
2017-05-03T08:34:13.990Z,40
2017-05-03T08:36:37.868Z,45
2017-05-03T08:39:01.747Z,50
2017-05-03T08:41:25.729Z,55
2017-05-03T08:43:41.092Z,60
2017-05-03T08:46:04.865Z,65
2017-05-03T08:48:28.654Z,75
2017-05-03T08:53:02.345Z,80
2017-05-03T08:55:26.165Z,85
2017-05-03T08:57:50.087Z,90
2017-05-03T09:00:13.919Z,95
2017-05-03T09:02:29.371Z,95
2017-05-03T09:04:44.896Z,90
2017-05-03T09:07:00.393Z,85
2017-05-03T09:09:24.254Z,115
2017-05-03T09:11:48.124Z,115
2017-05-03T09:14:12.131Z,140
2017-05-03T09:16:36.106Z,145
2017-05-03T09:19:00.088Z,130
2017-05-03T09:21:15.663Z,120
2017-05-03T09:23:39.762Z,85
2017-05-03T09:25:55.351Z,90
2017-05-03T09:28:19.434Z,95
2017-05-03T09:30:34.963Z,100
2017-05-03T09:32:58.998Z,100
2017-05-03T09:35:14.584Z,105
2017-05-03T09:39:40.052Z,100
2017-05-03T09:42:04.092Z,100
2017-05-03T09:44:28.160Z,105
2017-05-03T09:48:37.028Z,105
2017-05-03T09:51:01.106Z,110
2017-05-03T09:53:25.190Z,110
2017-05-03T09:55:49.289Z,115
2017-05-03T09:58:13.370Z,130
2017-05-03T10:00:37.443Z,140
2017-05-03T10:03:01.519Z,155
2017-05-03T10:05:25.607Z,165
2017-05-03T10:07:49.809Z,165
2017-05-03T10:10:14.017Z,165
2017-05-03T10:12:38.177Z,165
2017-05-03T10:15:02.358Z,165
2017-05-03T10:17:26.514Z,205
2017-05-03T10:19:50.733Z,175
2017-05-03T10:24:16.958Z,130
2017-05-03T10:26:24.361Z,130
2017-05-03T10:28:48.687Z,140
2017-05-03T10:31:12.971Z,150
2017-05-03T10:33:37.260Z,150
2017-05-03T10:36:01.514Z,120
2017-05-03T10:38:25.855Z,100
2017-05-03T10:40:50.134Z,105
2017-05-03T10:45:16.345Z,105
2017-05-03T10:47:40.648Z,100
2017-05-03T10:50:04.922Z,90
2017-05-03T10:52:29.203Z,85
2017-05-03T10:54:53.403Z,80
2017-05-03T10:57:17.569Z,75
2017-05-03T10:59:41.755Z,70
2017-05-03T11:02:05.927Z,75
2017-05-03T11:04:30.104Z,80
2017-05-03T11:06:54.297Z,90
2017-05-03T11:09:18.484Z,95
2017-05-03T11:11:42.588Z,95
2017-05-03T11:14:06.660Z,95
2017-05-03T11:16:22.699Z,90
2017-05-03T11:18:46.814Z,85
2017-05-03T11:21:02.496Z,75
2017-05-03T11:23:26.572Z,80
2017-05-03T11:25:42.225Z,80
2017-05-03T11:27:57.910Z,75
2017-05-03T11:30:22.029Z,70
2017-05-03T11:32:37.703Z,85
2017-05-03T11:35:01.787Z,105
2017-05-03T11:37:25.882Z,105
2017-05-03T11:39:49.968Z,95
2017-05-03T11:42:14.041Z,90
2017-05-03T11:44:38.121Z,90
2017-05-03T11:47:02.198Z,90
2017-05-03T11:49:26.282Z,85
2017-05-03T11:51:50.369Z,80
2017-05-03T11:54:14.445Z,70
2017-05-03T11:56:38.538Z,60
2017-05-03T12:03:14.842Z,50
2017-05-03T12:05:38.906Z,45
2017-05-03T12:10:13.210Z,30
2017-05-03T12:12:37.212Z,30
2017-05-03T12:15:01.177Z,30
2017-05-03T12:17:25.127Z,25
2017-05-03T12:19:49.009Z,25
2017-05-03T12:22:12.882Z,20
2017-05-03T12:24:36.747Z,20
2017-05-03T12:27:00.651Z,25
2017-05-03T12:29:24.490Z,25
2017-05-03T12:31:48.368Z,30
2017-05-03T12:34:12.241Z,30
2017-05-03T12:36:27.616Z,30
2017-05-03T12:38:51.385Z,30
2017-05-03T12:41:15.161Z,30
2017-05-03T12:43:38.928Z,30
2017-05-03T12:46:02.681Z,30
2017-05-03T12:48:26.348Z,30
2017-05-03T12:50:50.048Z,30
2017-05-03T12:53:13.787Z,25
2017-05-03T12:55:37.472Z,25
2017-05-03T12:58:01.141Z,25
2017-05-03T13:02:35.191Z,25
2017-05-03T13:04:58.954Z,25
2017-05-03T13:07:22.625Z,25
2017-05-03T13:09:46.284Z,30
2017-05-03T13:12:01.554Z,35
2017-05-03T13:16:35.570Z,45
2017-05-03T13:18:59.259Z,55
2017-05-03T13:21:22.928Z,60
2017-05-03T13:23:46.628Z,65
2017-05-03T13:26:10.293Z,70
2017-05-03T13:28:33.973Z,80
2017-05-03T13:30:57.748Z,85
2017-05-03T13:33:21.535Z,85
2017-05-03T13:35:45.309Z,85
2017-05-03T13:38:00.670Z,85
2017-05-03T13:40:24.472Z,80
2017-05-03T13:42:48.256Z,80
2017-05-03T13:47:13.791Z,80
2017-05-03T13:49:37.657Z,80
2017-05-03T13:52:01.548Z,80
2017-05-03T13:54:25.311Z,80
2017-05-03T13:56:49.209Z,80
2017-05-03T14:01:14.869Z,75
2017-05-03T14:03:38.727Z,65
2017-05-03T14:06:02.594Z,65
2017-05-03T14:08:18.042Z,65
2017-05-03T14:10:33.449Z,65
2017-05-03T14:12:57.326Z,65
2017-05-03T14:15:21.132Z,60
2017-05-03T14:17:44.990Z,60
2017-05-03T14:21:45.065Z,60
2017-05-03T14:26:17.593Z,65
2017-05-03T14:28:47.940Z,65
2017-05-03T14:31:26.454Z,65
2017-05-03T14:33:52.388Z,60
2017-05-03T14:37:52.336Z,55
2017-05-03T14:41:52.296Z,60
2017-05-03T14:44:22.765Z,55
2017-05-03T14:48:22.239Z,55
2017-05-03T14:51:02.681Z,50
2017-05-03T14:55:03.652Z,45
2017-05-03T14:57:36.006Z,45
2017-05-03T15:01:35.515Z,45
2017-05-03T15:05:35.593Z,45
2017-05-03T15:08:07.441Z,50
2017-05-03T15:12:07.432Z,50
2017-05-03T15:17:35.178Z,65
2017-05-03T15:20:00.072Z,65
2017-05-03T15:24:00.040Z,65
2017-05-03T15:28:00.039Z,65
2017-05-03T15:32:00.111Z,60
2017-05-03T15:34:31.015Z,60
2017-05-03T15:39:06.216Z,55
2017-05-03T15:41:30.159Z,55
2017-05-03T15:44:00.546Z,60
2017-05-03T15:46:31.111Z,60
2017-05-03T15:50:49.357Z,60
2017-05-03T15:53:13.238Z,60
2017-05-03T15:55:37.124Z,60
2017-05-03T15:58:01.006Z,60
2017-05-03T16:00:16.458Z,60
2017-05-03T16:02:41.286Z,60
2017-05-03T16:05:05.163Z,65
2017-05-03T16:07:29.156Z,60
2017-05-03T16:09:53.149Z,65
2017-05-03T16:12:17.133Z,65
2017-05-03T16:14:41.064Z,60
2017-05-03T16:17:05.059Z,60
2017-05-03T16:19:20.666Z,60
2017-05-03T16:21:44.510Z,60
2017-05-03T16:26:19.002Z,55
2017-05-03T16:28:34.520Z,55
2017-05-03T16:30:58.530Z,55
2017-05-03T16:33:22.493Z,55
2017-05-03T16:35:46.374Z,55
2017-05-03T16:38:10.338Z,50
2017-05-03T16:40:34.255Z,50
2017-05-03T16:42:49.791Z,50
2017-05-03T16:45:13.701Z,50
2017-05-03T16:47:37.659Z,50
2017-05-03T16:49:53.113Z,50
2017-05-03T16:52:16.977Z,50
2017-05-03T16:54:40.909Z,50
2017-05-03T16:57:04.784Z,50
2017-05-03T16:59:28.816Z,50
2017-05-03T17:01:52.749Z,50
2017-05-03T17:04:16.742Z,45
2017-05-03T17:06:40.715Z,45
2017-05-03T17:09:04.559Z,45
2017-05-03T17:11:28.506Z,45
2017-05-03T17:13:52.438Z,40
2017-05-03T17:16:16.434Z,40
2017-05-03T17:18:31.965Z,40
2017-05-03T17:20:55.895Z,40
2017-05-03T17:23:19.779Z,40
2017-05-03T17:25:43.607Z,35
2017-05-03T17:28:07.529Z,35
2017-05-03T17:30:31.406Z,30
2017-05-03T17:32:55.315Z,30
2017-05-03T17:35:19.143Z,30
2017-05-03T17:37:43.045Z,30
2017-05-03T17:40:06.873Z,30
2017-05-03T17:42:30.792Z,30
2017-05-03T17:44:54.619Z,30
2017-05-03T17:47:18.407Z,30
2017-05-03T17:51:52.527Z,25
2017-05-03T17:56:26.556Z,20
2017-05-03T17:58:51.309Z,20
2017-05-03T18:01:19.154Z,20
2017-05-03T18:03:35.656Z,20
2017-05-03T18:05:51.099Z,15
2017-05-03T18:08:15.503Z,15
2017-05-03T18:10:39.457Z,15
2017-05-03T18:13:01.597Z,10
2017-05-03T18:15:25.387Z,10
2017-05-03T18:17:51.225Z,10
2017-05-03T18:20:14.956Z,5
2017-05-03T18:24:49.130Z,5
2017-05-03T18:27:12.895Z,5
2017-05-03T18:29:36.647Z,0
2017-05-03T18:32:00.453Z,0
2017-05-03T18:34:25.132Z,0
2017-05-03T18:36:50.836Z,0
2017-05-03T18:39:14.599Z,0
2017-05-03T18:41:32.061Z,0
2017-05-03T18:45:32.075Z,0
2017-05-03T18:47:55.867Z,0
2017-05-03T18:50:12.157Z,0
2017-05-03T18:52:35.938Z,0
2017-05-03T18:54:59.699Z,0
2017-05-03T18:57:23.481Z,0
2017-05-03T18:59:47.283Z,0
2017-05-03T19:04:12.925Z,0
2017-05-03T19:06:36.674Z,0
2017-05-03T19:09:00.334Z,0
2017-05-03T19:11:24.131Z,0
2017-05-03T19:13:39.390Z,0
2017-05-03T19:18:04.796Z,0
2017-05-03T19:20:28.475Z,0
2017-05-03T19:22:52.173Z,0
2017-05-03T19:25:15.812Z,0
2017-05-03T19:27:39.495Z,0
2017-05-03T19:30:03.152Z,0
2017-05-03T19:32:26.821Z,0
2017-05-03T19:34:50.486Z,0
2017-05-03T19:37:05.775Z,0
2017-05-03T19:39:29.451Z,0
2017-05-03T19:41:53.109Z,0
2017-05-03T19:44:16.792Z,0
2017-05-03T19:48:33.275Z,0
2017-05-03T19:50:56.967Z,0
2017-05-03T19:53:20.649Z,0
2017-05-03T19:55:44.308Z,0
2017-05-03T19:57:59.582Z,0
2017-05-03T20:00:23.288Z,0
2017-05-03T20:02:46.919Z,0
2017-05-03T20:05:10.490Z,0
2017-05-03T20:07:31.292Z,0
2017-05-03T20:09:54.898Z,0
2017-05-03T20:12:18.435Z,0
2017-05-03T20:14:41.976Z,0
2017-05-03T20:17:05.608Z,0
2017-05-03T20:19:29.190Z,0
2017-05-03T20:21:52.690Z,0
2017-05-03T20:24:16.302Z,0
2017-05-03T20:26:39.866Z,0
2017-05-03T20:29:03.403Z,0
2017-05-03T20:31:26.888Z,0
2017-05-03T20:33:50.501Z,0
2017-05-03T20:36:14.069Z,0
2017-05-03T20:38:37.668Z,0
2017-05-03T20:41:01.198Z,0
2017-05-03T20:43:24.815Z,0
2017-05-03T20:45:48.322Z,0
2017-05-03T20:48:11.871Z,0
2017-05-03T20:50:35.541Z,0
2017-05-03T20:52:59.143Z,0
2017-05-03T20:57:32.948Z,0
2017-05-03T20:59:56.548Z,0
2017-05-03T21:02:20.120Z,0
2017-05-03T21:04:43.702Z,0
2017-05-03T21:07:07.210Z,0
2017-05-03T21:13:42.133Z,0
2017-05-03T21:16:05.822Z,0
2017-05-03T21:18:29.325Z,0
2017-05-03T21:20:52.930Z,0
2017-05-03T21:23:16.470Z,0
2017-05-03T21:25:40.046Z,0
2017-05-03T21:28:04.637Z,0
2017-05-03T21:30:28.205Z,0
2017-05-03T21:32:51.785Z,0
2017-05-03T21:35:23.027Z,0
2017-05-03T21:37:46.611Z,0
2017-05-03T21:40:10.186Z,0
2017-05-03T21:42:33.712Z,0
2017-05-03T21:44:57.196Z,0
2017-05-03T21:47:20.771Z,0
2017-05-03T21:49:44.266Z,0
2017-05-03T21:52:07.825Z,0
2017-05-03T21:54:31.380Z,0
2017-05-03T21:56:54.870Z,0
2017-05-03T21:59:18.293Z,0
2017-05-03T22:01:42.804Z,0
2017-05-03T22:04:07.308Z,0
2017-05-03T22:06:31.745Z,0
2017-05-03T22:08:56.307Z,0
2017-05-03T22:11:19.727Z,0
2017-05-03T22:13:44.264Z,0
2017-05-03T22:18:19.839Z,0
2017-05-03T22:20:43.346Z,0
2017-05-03T22:23:08.906Z,0
2017-05-03T22:25:32.307Z,0
2017-05-03T22:27:55.774Z,0
2017-05-03T22:30:19.251Z,0
2017-05-03T22:32:42.751Z,0
2017-05-03T22:35:07.249Z,0
2017-05-03T22:37:22.284Z,0
2017-05-03T22:39:46.686Z,0
2017-05-03T22:42:11.138Z,0
2017-05-03T22:44:35.562Z,0
2017-05-03T22:46:59.021Z,0
2017-05-03T22:49:22.492Z,0
2017-05-03T22:51:45.941Z,0
2017-05-03T22:54:09.427Z,0
2017-05-03T22:56:32.886Z,0
2017-05-03T22:58:56.405Z,0
2017-05-03T23:01:20.740Z,0
2017-05-03T23:03:45.233Z,0
2017-05-03T23:06:08.696Z,0
2017-05-03T23:08:32.136Z,0
2017-05-03T23:10:55.558Z,0
2017-05-03T23:13:19.015Z,0
2017-05-03T23:15:42.497Z,0
2017-05-03T23:18:07.972Z,0
2017-05-03T23:20:32.481Z,0
2017-05-03T23:22:57.019Z,0
2017-05-03T23:25:21.455Z,0
2017-05-03T23:27:44.935Z,0
2017-05-03T23:30:08.402Z,0
2017-05-03T23:32:31.872Z,0
2017-05-03T23:36:23.205Z,0
2017-05-03T23:40:56.881Z,0
2017-05-03T23:43:20.433Z,0
2017-05-03T23:45:50.749Z,0
2017-05-03T23:48:14.162Z,0
2017-05-03T23:50:37.667Z,0
2017-05-03T23:53:01.152Z,0
2017-05-03T23:55:16.183Z,0
2017-05-03T23:57:39.668Z,0
